sensor_id;sensor_type;location;lat;lon;timestamp;temperature;humidity
75357;HTU21D;63946;51.986;5.930;2023-12-04T05:53:14;2.14;70.85
75357;HTU21D;63946;51.986;5.930;2023-12-04T05:55:43;2.14;70.88
75357;HTU21D;63946;51.986;5.930;2023-12-04T05:58:12;2.13;70.67
75357;HTU21D;63946;51.986;5.930;2023-12-04T06:00:41;2.15;70.67
75357;HTU21D;63946;51.986;5.930;2023-12-04T06:03:09;2.17;70.53
75357;HTU21D;63946;51.986;5.930;2023-12-04T06:05:38;2.19;70.52
75357;HTU21D;63946;51.986;5.930;2023-12-04T06:08:07;2.21;70.30
75357;HTU21D;63946;51.986;5.930;2023-12-04T06:10:35;2.19;70.27
75357;HTU21D;63946;51.986;5.930;2023-12-04T06:13:04;2.16;70.16
75357;HTU21D;63946;51.986;5.930;2023-12-04T06:15:33;2.15;70.26
75357;HTU21D;63946;51.986;5.930;2023-12-04T06:18:01;2.19;70.13
75357;HTU21D;63946;51.986;5.930;2023-12-04T06:20:30;2.19;69.83
75357;HTU21D;63946;51.986;5.930;2023-12-04T06:22:59;2.22;69.67
75357;HTU21D;63946;51.986;5.930;2023-12-04T06:25:28;2.21;69.52
75357;HTU21D;63946;51.986;5.930;2023-12-04T06:27:57;2.23;69.54
75357;HTU21D;63946;51.986;5.930;2023-12-04T06:30:26;2.24;69.39
75357;HTU21D;63946;51.986;5.930;2023-12-04T06:32:55;2.25;69.48
75357;HTU21D;63946;51.986;5.930;2023-12-04T06:35:24;2.28;69.51
75357;HTU21D;63946;51.986;5.930;2023-12-04T06:37:54;2.28;69.45
75357;HTU21D;63946;51.986;5.930;2023-12-04T06:40:23;2.31;69.48
75357;HTU21D;63946;51.986;5.930;2023-12-04T06:42:52;2.31;69.29
75357;HTU21D;63946;51.986;5.930;2023-12-04T06:45:21;2.34;69.21
75357;HTU21D;63946;51.986;5.930;2023-12-04T06:47:50;2.34;69.26
75357;HTU21D;63946;51.986;5.930;2023-12-04T06:50:20;2.32;69.07
75357;HTU21D;63946;51.986;5.930;2023-12-04T06:52:48;2.36;69.26
75357;HTU21D;63946;51.986;5.930;2023-12-04T06:55:17;2.37;68.99
75357;HTU21D;63946;51.986;5.930;2023-12-04T06:57:46;2.41;69.02
75357;HTU21D;63946;51.986;5.930;2023-12-04T07:00:15;2.44;68.90
75357;HTU21D;63946;51.986;5.930;2023-12-04T07:02:44;2.45;68.68
75357;HTU21D;63946;51.986;5.930;2023-12-04T07:05:13;2.46;68.68
75357;HTU21D;63946;51.986;5.930;2023-12-04T07:07:42;2.43;68.28
75357;HTU21D;63946;51.986;5.930;2023-12-04T07:10:10;2.39;67.96
75357;HTU21D;63946;51.986;5.930;2023-12-04T07:12:44;2.41;68.10
75357;HTU21D;63946;51.986;5.930;2023-12-04T07:15:12;2.47;68.23
75357;HTU21D;63946;51.986;5.930;2023-12-04T07:17:42;2.50;68.16
75357;HTU21D;63946;51.986;5.930;2023-12-04T07:20:11;2.51;68.04
75357;HTU21D;63946;51.986;5.930;2023-12-04T07:22:40;2.51;67.73
75357;HTU21D;63946;51.986;5.930;2023-12-04T07:25:09;2.45;67.58
75357;HTU21D;63946;51.986;5.930;2023-12-04T07:27:37;2.46;67.65
75357;HTU21D;63946;51.986;5.930;2023-12-04T07:30:06;2.51;67.64
75357;HTU21D;63946;51.986;5.930;2023-12-04T07:32:36;2.54;67.67
75357;HTU21D;63946;51.986;5.930;2023-12-04T07:35:06;2.56;67.52
75357;HTU21D;63946;51.986;5.930;2023-12-04T07:37:36;2.54;67.20
75357;HTU21D;63946;51.986;5.930;2023-12-04T07:40:06;2.52;67.22
75357;HTU21D;63946;51.986;5.930;2023-12-04T07:42:36;2.53;66.91
75357;HTU21D;63946;51.986;5.930;2023-12-04T07:45:06;2.51;66.85
75357;HTU21D;63946;51.986;5.930;2023-12-04T07:47:36;2.51;66.81
75357;HTU21D;63946;51.986;5.930;2023-12-04T07:50:05;2.51;66.60
75357;HTU21D;63946;51.986;5.930;2023-12-04T07:52:34;2.52;66.56
75357;HTU21D;63946;51.986;5.930;2023-12-04T07:55:03;2.55;66.80
75357;HTU21D;63946;51.986;5.930;2023-12-04T07:57:32;2.59;66.79
75357;HTU21D;63946;51.986;5.930;2023-12-04T08:00:01;2.59;66.44
75357;HTU21D;63946;51.986;5.930;2023-12-04T08:02:30;2.61;66.38
75357;HTU21D;63946;51.986;5.930;2023-12-04T08:04:59;2.64;66.34
75357;HTU21D;63946;51.986;5.930;2023-12-04T08:07:28;2.61;66.20
75357;HTU21D;63946;51.986;5.930;2023-12-04T08:09:57;2.64;66.28
75357;HTU21D;63946;51.986;5.930;2023-12-04T08:12:26;2.68;66.41
75357;HTU21D;63946;51.986;5.930;2023-12-04T08:14:54;2.73;66.36
75357;HTU21D;63946;51.986;5.930;2023-12-04T08:17:23;2.74;65.90
75357;HTU21D;63946;51.986;5.930;2023-12-04T08:19:55;2.75;65.73
75357;HTU21D;63946;51.986;5.930;2023-12-04T08:22:24;2.73;65.71
75357;HTU21D;63946;51.986;5.930;2023-12-04T08:24:52;2.75;65.74
75357;HTU21D;63946;51.986;5.930;2023-12-04T08:27:21;2.75;65.56
75357;HTU21D;63946;51.986;5.930;2023-12-04T08:29:50;2.81;65.66
75357;HTU21D;63946;51.986;5.930;2023-12-04T08:32:19;2.81;65.59
75357;HTU21D;63946;51.986;5.930;2023-12-04T08:34:48;2.81;65.70
75357;HTU21D;63946;51.986;5.930;2023-12-04T08:37:18;2.85;65.89
75357;HTU21D;63946;51.986;5.930;2023-12-04T08:39:47;2.86;65.93
75357;HTU21D;63946;51.986;5.930;2023-12-04T08:42:16;2.87;66.04
75357;HTU21D;63946;51.986;5.930;2023-12-04T08:44:44;2.91;65.91
75357;HTU21D;63946;51.986;5.930;2023-12-04T08:47:13;2.97;65.70
75357;HTU21D;63946;51.986;5.930;2023-12-04T08:49:43;3.02;65.70
75357;HTU21D;63946;51.986;5.930;2023-12-04T08:52:12;3.02;65.78
75357;HTU21D;63946;51.986;5.930;2023-12-04T08:54:41;3.02;65.75
75357;HTU21D;63946;51.986;5.930;2023-12-04T08:57:10;3.04;65.91
75357;HTU21D;63946;51.986;5.930;2023-12-04T08:59:40;3.08;65.78
75357;HTU21D;63946;51.986;5.930;2023-12-04T09:02:08;3.10;65.51
75357;HTU21D;63946;51.986;5.930;2023-12-04T09:04:37;3.05;65.34
75357;HTU21D;63946;51.986;5.930;2023-12-04T09:07:06;3.05;65.21
75357;HTU21D;63946;51.986;5.930;2023-12-04T09:09:36;3.08;65.24
75357;HTU21D;63946;51.986;5.930;2023-12-04T09:12:05;3.09;65.34
75357;HTU21D;63946;51.986;5.930;2023-12-04T09:14:34;3.09;65.27
75357;HTU21D;63946;51.986;5.930;2023-12-04T09:17:04;3.13;65.26
75357;HTU21D;63946;51.986;5.930;2023-12-04T09:19:33;3.12;65.46
75357;HTU21D;63946;51.986;5.930;2023-12-04T09:22:02;3.18;65.32
75357;HTU21D;63946;51.986;5.930;2023-12-04T09:24:31;3.20;65.24
75357;HTU21D;63946;51.986;5.930;2023-12-04T09:26:59;3.24;65.33
75357;HTU21D;63946;51.986;5.930;2023-12-04T09:29:28;3.19;65.27
75357;HTU21D;63946;51.986;5.930;2023-12-04T09:31:57;3.23;65.39
75357;HTU21D;63946;51.986;5.930;2023-12-04T09:34:25;3.24;65.37
75357;HTU21D;63946;51.986;5.930;2023-12-04T09:36:54;3.26;65.43
75357;HTU21D;63946;51.986;5.930;2023-12-04T09:39:23;3.26;65.54
75357;HTU21D;63946;51.986;5.930;2023-12-04T09:41:52;3.29;65.45
75357;HTU21D;63946;51.986;5.930;2023-12-04T09:44:22;3.33;65.35
75357;HTU21D;63946;51.986;5.930;2023-12-04T09:46:52;3.35;65.32
75357;HTU21D;63946;51.986;5.930;2023-12-04T09:49:22;3.39;65.29
75357;HTU21D;63946;51.986;5.930;2023-12-04T09:51:51;3.43;65.20
75357;HTU21D;63946;51.986;5.930;2023-12-04T09:54:20;3.42;64.97
75357;HTU21D;63946;51.986;5.930;2023-12-04T09:56:49;3.42;65.06
75357;HTU21D;63946;51.986;5.930;2023-12-04T09:59:23;3.42;65.03
75357;HTU21D;63946;51.986;5.930;2023-12-04T10:01:57;3.42;65.08
75357;HTU21D;63946;51.986;5.930;2023-12-04T10:04:28;3.41;65.01
75357;HTU21D;63946;51.986;5.930;2023-12-04T10:06:57;3.42;64.85
75357;HTU21D;63946;51.986;5.930;2023-12-04T10:09:26;3.40;64.66
75357;HTU21D;63946;51.986;5.930;2023-12-04T10:12:01;3.42;64.79
75357;HTU21D;63946;51.986;5.930;2023-12-04T10:14:30;3.43;64.97
75357;HTU21D;63946;51.986;5.930;2023-12-04T10:16:59;3.47;64.83
75357;HTU21D;63946;51.986;5.930;2023-12-04T10:19:28;3.50;64.54
75357;HTU21D;63946;51.986;5.930;2023-12-04T10:21:58;3.48;64.49
75357;HTU21D;63946;51.986;5.930;2023-12-04T10:27:04;3.61;64.82
75357;HTU21D;63946;51.986;5.930;2023-12-04T10:29:48;3.63;64.68
75357;HTU21D;63946;51.986;5.930;2023-12-04T10:32:18;3.62;64.54
75357;HTU21D;63946;51.986;5.930;2023-12-04T10:34:48;3.61;64.50
75357;HTU21D;63946;51.986;5.930;2023-12-04T10:37:17;3.65;64.54
75357;HTU21D;63946;51.986;5.930;2023-12-04T10:39:50;3.71;64.50
75357;HTU21D;63946;51.986;5.930;2023-12-04T10:42:29;3.72;64.31
75357;HTU21D;63946;51.986;5.930;2023-12-04T10:44:59;3.72;64.40
75357;HTU21D;63946;51.986;5.930;2023-12-04T10:47:33;3.72;64.14
75357;HTU21D;63946;51.986;5.930;2023-12-04T10:50:03;3.69;63.98
75357;HTU21D;63946;51.986;5.930;2023-12-04T10:52:33;3.61;63.94
75357;HTU21D;63946;51.986;5.930;2023-12-04T10:55:06;3.61;63.64
75357;HTU21D;63946;51.986;5.930;2023-12-04T10:57:37;3.65;63.79
75357;HTU21D;63946;51.986;5.930;2023-12-04T11:00:08;3.67;63.69
75357;HTU21D;63946;51.986;5.930;2023-12-04T11:02:42;3.68;63.38
75357;HTU21D;63946;51.986;5.930;2023-12-04T11:05:15;3.69;63.35
75357;HTU21D;63946;51.986;5.930;2023-12-04T11:07:53;3.72;63.27
75357;HTU21D;63946;51.986;5.930;2023-12-04T11:10:23;3.72;63.07
75357;HTU21D;63946;51.986;5.930;2023-12-04T11:13:15;3.74;62.85
75357;HTU21D;63946;51.986;5.930;2023-12-04T11:15:48;3.78;63.09
75357;HTU21D;63946;51.986;5.930;2023-12-04T11:18:21;3.85;63.05
75357;HTU21D;63946;51.986;5.930;2023-12-04T11:20:58;3.86;62.95
75357;HTU21D;63946;51.986;5.930;2023-12-04T11:23:31;3.86;63.00
75357;HTU21D;63946;51.986;5.930;2023-12-04T11:26:02;3.88;62.73
75357;HTU21D;63946;51.986;5.930;2023-12-04T11:28:32;3.89;62.76
75357;HTU21D;63946;51.986;5.930;2023-12-04T11:31:04;3.92;62.84
75357;HTU21D;63946;51.986;5.930;2023-12-04T11:33:40;3.92;62.34
75357;HTU21D;63946;51.986;5.930;2023-12-04T11:36:12;3.89;62.18
75357;HTU21D;63946;51.986;5.930;2023-12-04T11:38:46;3.78;62.18
75357;HTU21D;63946;51.986;5.930;2023-12-04T11:41:24;3.77;62.21
75357;HTU21D;63946;51.986;5.930;2023-12-04T11:43:57;3.78;62.12
75357;HTU21D;63946;51.986;5.930;2023-12-04T11:46:27;3.79;62.14
75357;HTU21D;63946;51.986;5.930;2023-12-04T11:49:26;3.80;62.24
75357;HTU21D;63946;51.986;5.930;2023-12-04T11:52:02;3.80;62.41
75357;HTU21D;63946;51.986;5.930;2023-12-04T11:54:55;3.82;62.40
75357;HTU21D;63946;51.986;5.930;2023-12-04T11:57:25;3.84;62.53
75357;HTU21D;63946;51.986;5.930;2023-12-04T12:00:09;3.87;62.64
75357;HTU21D;63946;51.986;5.930;2023-12-04T12:02:39;3.88;62.79
75357;HTU21D;63946;51.986;5.930;2023-12-04T12:05:12;3.89;62.66
75357;HTU21D;63946;51.986;5.930;2023-12-04T12:07:41;3.90;62.56
75357;HTU21D;63946;51.986;5.930;2023-12-04T12:10:11;3.87;62.17
75357;HTU21D;63946;51.986;5.930;2023-12-04T12:12:42;3.89;62.47
75357;HTU21D;63946;51.986;5.930;2023-12-04T12:15:12;3.92;62.49
75357;HTU21D;63946;51.986;5.930;2023-12-04T12:17:41;3.97;62.45
75357;HTU21D;63946;51.986;5.930;2023-12-04T12:20:12;4.00;62.58
75357;HTU21D;63946;51.986;5.930;2023-12-04T12:22:41;4.01;62.62
75357;HTU21D;63946;51.986;5.930;2023-12-04T12:25:10;4.07;62.77
75357;HTU21D;63946;51.986;5.930;2023-12-04T12:27:40;4.06;62.60
75357;HTU21D;63946;51.986;5.930;2023-12-04T12:30:10;4.01;62.37
75357;HTU21D;63946;51.986;5.930;2023-12-04T12:32:38;3.99;62.34
75357;HTU21D;63946;51.986;5.930;2023-12-04T12:35:07;3.97;62.39
75357;HTU21D;63946;51.986;5.930;2023-12-04T12:37:39;3.97;62.47
75357;HTU21D;63946;51.986;5.930;2023-12-04T12:40:09;3.91;62.40
75357;HTU21D;63946;51.986;5.930;2023-12-04T12:42:38;3.90;62.64
75357;HTU21D;63946;51.986;5.930;2023-12-04T12:45:12;3.95;62.34
75357;HTU21D;63946;51.986;5.930;2023-12-04T12:47:42;3.90;62.24
75357;HTU21D;63946;51.986;5.930;2023-12-04T12:50:12;3.89;62.10
75357;HTU21D;63946;51.986;5.930;2023-12-04T12:52:40;3.85;62.45
75357;HTU21D;63946;51.986;5.930;2023-12-04T12:55:10;3.85;62.32
75357;HTU21D;63946;51.986;5.930;2023-12-04T12:57:39;3.84;62.29
75357;HTU21D;63946;51.986;5.930;2023-12-04T13:00:08;3.80;62.31
75357;HTU21D;63946;51.986;5.930;2023-12-04T13:02:39;3.82;62.37
75357;HTU21D;63946;51.986;5.930;2023-12-04T13:05:07;3.86;62.64
75357;HTU21D;63946;51.986;5.930;2023-12-04T13:07:37;3.87;62.50
75357;HTU21D;63946;51.986;5.930;2023-12-04T13:10:07;3.85;62.35
75357;HTU21D;63946;51.986;5.930;2023-12-04T13:12:36;3.86;62.41
75357;HTU21D;63946;51.986;5.930;2023-12-04T13:15:06;3.86;62.73
75357;HTU21D;63946;51.986;5.930;2023-12-04T13:17:36;3.91;62.79
75357;HTU21D;63946;51.986;5.930;2023-12-04T13:20:05;3.90;62.75
75357;HTU21D;63946;51.986;5.930;2023-12-04T13:22:44;3.92;62.67
75357;HTU21D;63946;51.986;5.930;2023-12-04T13:25:13;3.91;62.67
75357;HTU21D;63946;51.986;5.930;2023-12-04T13:27:42;3.91;62.73
75357;HTU21D;63946;51.986;5.930;2023-12-04T13:30:11;3.90;62.74
75357;HTU21D;63946;51.986;5.930;2023-12-04T13:32:40;3.87;62.79
75357;HTU21D;63946;51.986;5.930;2023-12-04T13:35:08;3.88;62.78
75357;HTU21D;63946;51.986;5.930;2023-12-04T13:37:37;3.88;63.02
75357;HTU21D;63946;51.986;5.930;2023-12-04T13:40:07;3.89;63.05
75357;HTU21D;63946;51.986;5.930;2023-12-04T13:42:47;3.87;62.95
75357;HTU21D;63946;51.986;5.930;2023-12-04T13:45:28;3.86;63.27
75357;HTU21D;63946;51.986;5.930;2023-12-04T13:47:57;3.84;63.42
75357;HTU21D;63946;51.986;5.930;2023-12-04T13:50:26;3.84;63.75
75357;HTU21D;63946;51.986;5.930;2023-12-04T13:52:55;3.88;63.81
75357;HTU21D;63946;51.986;5.930;2023-12-04T13:55:26;3.91;63.79
75357;HTU21D;63946;51.986;5.930;2023-12-04T13:58:15;3.85;63.89
75357;HTU21D;63946;51.986;5.930;2023-12-04T14:00:56;3.83;64.11
75357;HTU21D;63946;51.986;5.930;2023-12-04T14:03:37;3.85;64.30
75357;HTU21D;63946;51.986;5.930;2023-12-04T14:06:06;3.86;64.60
75357;HTU21D;63946;51.986;5.930;2023-12-04T14:08:35;3.87;64.78
75357;HTU21D;63946;51.986;5.930;2023-12-04T14:11:07;3.87;64.97
75357;HTU21D;63946;51.986;5.930;2023-12-04T14:13:36;3.88;65.28
75357;HTU21D;63946;51.986;5.930;2023-12-04T14:16:06;3.84;65.58
75357;HTU21D;63946;51.986;5.930;2023-12-04T14:18:35;3.84;65.75
75357;HTU21D;63946;51.986;5.930;2023-12-04T14:21:04;3.83;65.79
75357;HTU21D;63946;51.986;5.930;2023-12-04T14:23:33;3.83;65.96
75357;HTU21D;63946;51.986;5.930;2023-12-04T14:26:02;3.83;66.02
75357;HTU21D;63946;51.986;5.930;2023-12-04T14:28:32;3.84;66.26
75357;HTU21D;63946;51.986;5.930;2023-12-04T14:31:00;3.75;66.58
75357;HTU21D;63946;51.986;5.930;2023-12-04T14:33:29;3.74;66.91
75357;HTU21D;63946;51.986;5.930;2023-12-04T14:35:58;3.76;67.07
75357;HTU21D;63946;51.986;5.930;2023-12-04T14:38:27;3.74;67.33
75357;HTU21D;63946;51.986;5.930;2023-12-04T14:40:55;3.74;67.23
75357;HTU21D;63946;51.986;5.930;2023-12-04T14:43:24;3.73;67.78
75357;HTU21D;63946;51.986;5.930;2023-12-04T14:45:53;3.74;67.83
75357;HTU21D;63946;51.986;5.930;2023-12-04T14:48:25;3.75;67.94
75357;HTU21D;63946;51.986;5.930;2023-12-04T14:50:53;3.74;67.95
75357;HTU21D;63946;51.986;5.930;2023-12-04T14:53:22;3.75;68.19
75357;HTU21D;63946;51.986;5.930;2023-12-04T14:56:07;3.71;68.42
75357;HTU21D;63946;51.986;5.930;2023-12-04T14:58:57;3.64;68.66
75357;HTU21D;63946;51.986;5.930;2023-12-04T15:01:41;3.62;68.87
75357;HTU21D;63946;51.986;5.930;2023-12-04T15:04:30;3.62;68.94
75357;HTU21D;63946;51.986;5.930;2023-12-04T15:07:12;3.58;69.09
75357;HTU21D;63946;51.986;5.930;2023-12-04T15:09:53;3.53;69.32
75357;HTU21D;63946;51.986;5.930;2023-12-04T15:12:40;3.54;69.51
75357;HTU21D;63946;51.986;5.930;2023-12-04T15:15:33;3.57;69.57
75357;HTU21D;63946;51.986;5.930;2023-12-04T15:18:14;3.54;69.78
75357;HTU21D;63946;51.986;5.930;2023-12-04T15:21:00;3.56;70.03
75357;HTU21D;63946;51.986;5.930;2023-12-04T15:23:27;3.59;69.97
75357;HTU21D;63946;51.986;5.930;2023-12-04T15:25:56;3.61;70.07
75357;HTU21D;63946;51.986;5.930;2023-12-04T15:28:22;3.60;70.14
75357;HTU21D;63946;51.986;5.930;2023-12-04T15:30:53;3.62;70.26
75357;HTU21D;63946;51.986;5.930;2023-12-04T15:33:19;3.63;70.36
75357;HTU21D;63946;51.986;5.930;2023-12-04T15:35:52;3.68;70.29
75357;HTU21D;63946;51.986;5.930;2023-12-04T15:38:18;3.67;70.29
75357;HTU21D;63946;51.986;5.930;2023-12-04T15:40:47;3.65;70.52
75357;HTU21D;63946;51.986;5.930;2023-12-04T15:43:14;3.63;70.62
75357;HTU21D;63946;51.986;5.930;2023-12-04T15:45:45;3.61;70.83
75357;HTU21D;63946;51.986;5.930;2023-12-04T15:48:14;3.57;71.01
75357;HTU21D;63946;51.986;5.930;2023-12-04T15:50:40;3.59;71.16
75357;HTU21D;63946;51.986;5.930;2023-12-04T15:53:09;3.60;71.34
75357;HTU21D;63946;51.986;5.930;2023-12-04T15:55:35;3.58;71.48
75357;HTU21D;63946;51.986;5.930;2023-12-04T15:58:04;3.55;71.70
75357;HTU21D;63946;51.986;5.930;2023-12-04T16:00:30;3.55;71.62
75357;HTU21D;63946;51.986;5.930;2023-12-04T16:03:00;3.57;71.88
75357;HTU21D;63946;51.986;5.930;2023-12-04T16:05:26;3.56;71.93
75357;HTU21D;63946;51.986;5.930;2023-12-04T16:07:55;3.55;72.11
75357;HTU21D;63946;51.986;5.930;2023-12-04T16:10:25;3.53;72.21
75357;HTU21D;63946;51.986;5.930;2023-12-04T16:12:54;3.49;72.32
75357;HTU21D;63946;51.986;5.930;2023-12-04T16:15:23;3.48;72.45
75357;HTU21D;63946;51.986;5.930;2023-12-04T16:17:51;3.42;72.70
75357;HTU21D;63946;51.986;5.930;2023-12-04T16:20:20;3.44;72.74
75357;HTU21D;63946;51.986;5.930;2023-12-04T16:22:52;3.38;73.06
75357;HTU21D;63946;51.986;5.930;2023-12-04T16:25:21;3.33;73.25
75357;HTU21D;63946;51.986;5.930;2023-12-04T16:27:50;3.34;73.18
75357;HTU21D;63946;51.986;5.930;2023-12-04T16:30:19;3.33;73.38
75357;HTU21D;63946;51.986;5.930;2023-12-04T16:32:48;3.39;73.22
75357;HTU21D;63946;51.986;5.930;2023-12-04T16:35:18;3.41;73.30
75357;HTU21D;63946;51.986;5.930;2023-12-04T16:37:47;3.38;73.47
75357;HTU21D;63946;51.986;5.930;2023-12-04T16:40:16;3.31;73.60
75357;HTU21D;63946;51.986;5.930;2023-12-04T16:42:45;3.26;73.76
75357;HTU21D;63946;51.986;5.930;2023-12-04T16:45:13;3.23;73.88
75357;HTU21D;63946;51.986;5.930;2023-12-04T16:47:42;3.20;73.99
75357;HTU21D;63946;51.986;5.930;2023-12-04T16:50:11;3.15;74.27
75357;HTU21D;63946;51.986;5.930;2023-12-04T16:52:40;3.09;74.60
75357;HTU21D;63946;51.986;5.930;2023-12-04T16:55:09;3.10;74.58
75357;HTU21D;63946;51.986;5.930;2023-12-04T16:57:37;3.13;74.61
75357;HTU21D;63946;51.986;5.930;2023-12-04T17:00:06;3.14;74.53
75357;HTU21D;63946;51.986;5.930;2023-12-04T17:02:35;3.20;74.47
75357;HTU21D;63946;51.986;5.930;2023-12-04T17:05:07;3.20;74.36
75357;HTU21D;63946;51.986;5.930;2023-12-04T17:07:36;3.19;74.49
75357;HTU21D;63946;51.986;5.930;2023-12-04T17:10:05;3.21;74.62
75357;HTU21D;63946;51.986;5.930;2023-12-04T17:12:36;3.26;74.58
75357;HTU21D;63946;51.986;5.930;2023-12-04T17:15:11;3.26;74.70
75357;HTU21D;63946;51.986;5.930;2023-12-04T17:17:41;3.27;74.60
75357;HTU21D;63946;51.986;5.930;2023-12-04T17:20:10;3.30;74.73
75357;HTU21D;63946;51.986;5.930;2023-12-04T17:22:39;3.32;74.77
75357;HTU21D;63946;51.986;5.930;2023-12-04T17:25:09;3.30;74.72
75357;HTU21D;63946;51.986;5.930;2023-12-04T17:27:44;3.27;74.80
75357;HTU21D;63946;51.986;5.930;2023-12-04T17:30:13;3.27;74.89
75357;HTU21D;63946;51.986;5.930;2023-12-04T17:32:42;3.25;74.99
75357;HTU21D;63946;51.986;5.930;2023-12-04T17:35:11;3.27;74.92
75357;HTU21D;63946;51.986;5.930;2023-12-04T17:37:40;3.28;74.93
75357;HTU21D;63946;51.986;5.930;2023-12-04T17:40:09;3.29;74.90
75357;HTU21D;63946;51.986;5.930;2023-12-04T17:42:38;3.29;74.92
75357;HTU21D;63946;51.986;5.930;2023-12-04T17:45:07;3.32;74.89
75357;HTU21D;63946;51.986;5.930;2023-12-04T17:47:37;3.31;74.92
75357;HTU21D;63946;51.986;5.930;2023-12-04T17:50:06;3.29;74.93
75357;HTU21D;63946;51.986;5.930;2023-12-04T17:52:36;3.28;75.05
75357;HTU21D;63946;51.986;5.930;2023-12-04T17:55:09;3.26;75.03
75357;HTU21D;63946;51.986;5.930;2023-12-04T17:57:38;3.24;75.23
75357;HTU21D;63946;51.986;5.930;2023-12-04T18:00:08;3.24;75.09
75357;HTU21D;63946;51.986;5.930;2023-12-04T18:02:40;3.28;75.18
75357;HTU21D;63946;51.986;5.930;2023-12-04T18:05:12;3.29;75.26
75357;HTU21D;63946;51.986;5.930;2023-12-04T18:07:41;3.27;75.08
75357;HTU21D;63946;51.986;5.930;2023-12-04T18:10:10;3.26;75.29
75357;HTU21D;63946;51.986;5.930;2023-12-04T18:12:39;3.24;75.42
75357;HTU21D;63946;51.986;5.930;2023-12-04T18:15:08;3.18;75.58
75357;HTU21D;63946;51.986;5.930;2023-12-04T18:17:39;3.10;75.85
75357;HTU21D;63946;51.986;5.930;2023-12-04T18:20:11;3.09;76.02
75357;HTU21D;63946;51.986;5.930;2023-12-04T18:22:41;3.13;76.00
75357;HTU21D;63946;51.986;5.930;2023-12-04T18:25:14;3.12;75.66
75357;HTU21D;63946;51.986;5.930;2023-12-04T18:27:43;3.11;75.86
75357;HTU21D;63946;51.986;5.930;2023-12-04T18:30:12;3.11;75.80
75357;HTU21D;63946;51.986;5.930;2023-12-04T18:32:44;3.11;75.95
75357;HTU21D;63946;51.986;5.930;2023-12-04T18:35:14;3.11;76.03
75357;HTU21D;63946;51.986;5.930;2023-12-04T18:38:06;3.15;76.12
75357;HTU21D;63946;51.986;5.930;2023-12-04T18:40:35;3.13;76.02
75357;HTU21D;63946;51.986;5.930;2023-12-04T18:43:04;3.12;76.17
75357;HTU21D;63946;51.986;5.930;2023-12-04T18:45:34;3.11;76.21
75357;HTU21D;63946;51.986;5.930;2023-12-04T18:48:04;3.14;76.15
75357;HTU21D;63946;51.986;5.930;2023-12-04T18:50:35;3.16;76.34
75357;HTU21D;63946;51.986;5.930;2023-12-04T18:53:06;3.20;76.24
75357;HTU21D;63946;51.986;5.930;2023-12-04T18:55:35;3.23;76.28
75357;HTU21D;63946;51.986;5.930;2023-12-04T18:58:04;3.21;76.30
75357;HTU21D;63946;51.986;5.930;2023-12-04T19:00:35;3.20;76.27
75357;HTU21D;63946;51.986;5.930;2023-12-04T19:03:04;3.19;76.49
75357;HTU21D;63946;51.986;5.930;2023-12-04T19:05:33;3.23;76.53
75357;HTU21D;63946;51.986;5.930;2023-12-04T19:08:05;3.21;76.57
75357;HTU21D;63946;51.986;5.930;2023-12-04T19:10:34;3.19;76.62
75357;HTU21D;63946;51.986;5.930;2023-12-04T19:13:02;3.21;76.71
75357;HTU21D;63946;51.986;5.930;2023-12-04T19:15:32;3.16;76.82
75357;HTU21D;63946;51.986;5.930;2023-12-04T19:18:00;3.20;76.96
75357;HTU21D;63946;51.986;5.930;2023-12-04T19:20:29;3.21;76.84
75357;HTU21D;63946;51.986;5.930;2023-12-04T19:22:58;3.20;77.03
75357;HTU21D;63946;51.986;5.930;2023-12-04T19:25:33;3.21;77.10
75357;HTU21D;63946;51.986;5.930;2023-12-04T19:28:04;3.19;76.95
75357;HTU21D;63946;51.986;5.930;2023-12-04T19:30:43;3.16;77.30
75357;HTU21D;63946;51.986;5.930;2023-12-04T19:33:11;3.15;77.32
75357;HTU21D;63946;51.986;5.930;2023-12-04T19:35:42;3.12;77.44
75357;HTU21D;63946;51.986;5.930;2023-12-04T19:38:14;3.15;77.59
75357;HTU21D;63946;51.986;5.930;2023-12-04T19:40:48;3.16;77.60
75357;HTU21D;63946;51.986;5.930;2023-12-04T19:43:17;3.23;77.60
75357;HTU21D;63946;51.986;5.930;2023-12-04T19:45:46;3.24;77.49
75357;HTU21D;63946;51.986;5.930;2023-12-04T19:48:15;3.21;77.73
75357;HTU21D;63946;51.986;5.930;2023-12-04T19:50:44;3.20;77.76
75357;HTU21D;63946;51.986;5.930;2023-12-04T19:53:16;3.24;77.79
75357;HTU21D;63946;51.986;5.930;2023-12-04T19:55:44;3.29;77.63
75357;HTU21D;63946;51.986;5.930;2023-12-04T19:58:13;3.30;77.67
75357;HTU21D;63946;51.986;5.930;2023-12-04T20:00:42;3.30;77.55
75357;HTU21D;63946;51.986;5.930;2023-12-04T20:03:11;3.30;77.75
75357;HTU21D;63946;51.986;5.930;2023-12-04T20:05:39;3.32;77.73
75357;HTU21D;63946;51.986;5.930;2023-12-04T20:08:08;3.31;77.84
75357;HTU21D;63946;51.986;5.930;2023-12-04T20:10:37;3.33;77.76
75357;HTU21D;63946;51.986;5.930;2023-12-04T20:13:06;3.33;77.87
75357;HTU21D;63946;51.986;5.930;2023-12-04T20:15:35;3.32;78.01
75357;HTU21D;63946;51.986;5.930;2023-12-04T20:18:04;3.31;77.97
75357;HTU21D;63946;51.986;5.930;2023-12-04T20:20:34;3.30;78.02
75357;HTU21D;63946;51.986;5.930;2023-12-04T20:23:03;3.33;78.08
75357;HTU21D;63946;51.986;5.930;2023-12-04T20:25:31;3.31;77.98
75357;HTU21D;63946;51.986;5.930;2023-12-04T20:28:00;3.30;78.08
75357;HTU21D;63946;51.986;5.930;2023-12-04T20:30:29;3.28;78.13
75357;HTU21D;63946;51.986;5.930;2023-12-04T20:33:00;3.24;78.21
75357;HTU21D;63946;51.986;5.930;2023-12-04T20:35:28;3.24;78.26
75357;HTU21D;63946;51.986;5.930;2023-12-04T20:37:57;3.26;78.30
75357;HTU21D;63946;51.986;5.930;2023-12-04T20:40:26;3.28;78.30
75357;HTU21D;63946;51.986;5.930;2023-12-04T20:42:54;3.28;78.47
75357;HTU21D;63946;51.986;5.930;2023-12-04T20:45:26;3.32;78.40
75357;HTU21D;63946;51.986;5.930;2023-12-04T20:47:58;3.38;78.23
75357;HTU21D;63946;51.986;5.930;2023-12-04T20:50:27;3.42;78.25
75357;HTU21D;63946;51.986;5.930;2023-12-04T20:52:56;3.46;78.18
75357;HTU21D;63946;51.986;5.930;2023-12-04T20:55:25;3.44;78.20
75357;HTU21D;63946;51.986;5.930;2023-12-04T20:57:54;3.44;78.24
75357;HTU21D;63946;51.986;5.930;2023-12-04T21:00:25;3.44;78.40
75357;HTU21D;63946;51.986;5.930;2023-12-04T21:02:56;3.45;78.28
75357;HTU21D;63946;51.986;5.930;2023-12-04T21:05:25;3.45;78.44
75357;HTU21D;63946;51.986;5.930;2023-12-04T21:07:54;3.47;78.32
75357;HTU21D;63946;51.986;5.930;2023-12-04T21:10:26;3.47;78.28
75357;HTU21D;63946;51.986;5.930;2023-12-04T21:12:55;3.42;78.40
75357;HTU21D;63946;51.986;5.930;2023-12-04T21:15:24;3.42;78.42
75357;HTU21D;63946;51.986;5.930;2023-12-04T21:17:55;3.49;78.44
75357;HTU21D;63946;51.986;5.930;2023-12-04T21:20:24;3.53;78.30
75357;HTU21D;63946;51.986;5.930;2023-12-04T21:22:55;3.54;78.38
75357;HTU21D;63946;51.986;5.930;2023-12-04T21:25:24;3.55;78.30
75357;HTU21D;63946;51.986;5.930;2023-12-04T21:27:53;3.55;78.26
75357;HTU21D;63946;51.986;5.930;2023-12-04T21:30:21;3.47;78.35
75357;HTU21D;63946;51.986;5.930;2023-12-04T21:32:50;3.46;78.77
75357;HTU21D;63946;51.986;5.930;2023-12-04T21:35:19;3.48;78.65
75357;HTU21D;63946;51.986;5.930;2023-12-04T21:37:48;3.47;78.65
75357;HTU21D;63946;51.986;5.930;2023-12-04T21:40:16;3.48;78.72
75357;HTU21D;63946;51.986;5.930;2023-12-04T21:42:45;3.49;78.72
75357;HTU21D;63946;51.986;5.930;2023-12-04T21:45:14;3.50;78.67